sensor_id;sensor_type;location;lat;lon;timestamp;P1;durP1;ratioP1;P2;durP2;ratioP2
19971;SDS011;10147;16.402;102.848;2023-09-18T00:00:17;46.72;;;41.08;;
19971;SDS011;10147;16.402;102.848;2023-09-18T00:02:48;53.72;;;47.88;;
19971;SDS011;10147;16.402;102.848;2023-09-18T00:05:18;49.05;;;42.15;;
19971;SDS011;10147;16.402;102.848;2023-09-18T00:07:48;57.92;;;45.85;;
19971;SDS011;10147;16.402;102.848;2023-09-18T00:10:18;21.45;;;19.42;;
19971;SDS011;10147;16.402;102.848;2023-09-18T00:12:47;23.42;;;21.08;;
19971;SDS011;10147;16.402;102.848;2023-09-18T00:15:17;21.63;;;19.58;;
19971;SDS011;10147;16.402;102.848;2023-09-18T00:17:47;21.05;;;19.15;;
19971;SDS011;10147;16.402;102.848;2023-09-18T00:20:17;21.25;;;19.13;;
19971;SDS011;10147;16.402;102.848;2023-09-18T00:22:48;20.23;;;18.42;;
19971;SDS011;10147;16.402;102.848;2023-09-18T00:25:18;20.30;;;18.23;;
19971;SDS011;10147;16.402;102.848;2023-09-18T00:27:48;17.42;;;15.82;;
19971;SDS011;10147;16.402;102.848;2023-09-18T00:30:21;16.95;;;15.45;;
19971;SDS011;10147;16.402;102.848;2023-09-18T00:32:51;16.63;;;15.13;;
19971;SDS011;10147;16.402;102.848;2023-09-18T00:35:21;17.10;;;15.38;;
19971;SDS011;10147;16.402;102.848;2023-09-18T00:37:52;17.40;;;15.80;;
19971;SDS011;10147;16.402;102.848;2023-09-18T00:40:22;16.00;;;14.50;;
19971;SDS011;10147;16.402;102.848;2023-09-18T00:42:54;15.50;;;14.20;;
19971;SDS011;10147;16.402;102.848;2023-09-18T00:45:23;15.65;;;14.30;;
19971;SDS011;10147;16.402;102.848;2023-09-18T00:47:55;14.98;;;13.80;;
19971;SDS011;10147;16.402;102.848;2023-09-18T00:50:26;15.63;;;14.23;;
19971;SDS011;10147;16.402;102.848;2023-09-18T00:52:56;14.90;;;13.60;;
19971;SDS011;10147;16.402;102.848;2023-09-18T00:55:27;14.82;;;13.48;;
19971;SDS011;10147;16.402;102.848;2023-09-18T00:57:59;15.25;;;13.95;;
19971;SDS011;10147;16.402;102.848;2023-09-18T01:00:29;15.10;;;13.80;;
19971;SDS011;10147;16.402;102.848;2023-09-18T01:03:01;14.63;;;13.50;;
19971;SDS011;10147;16.402;102.848;2023-09-18T01:05:33;15.57;;;14.27;;
19971;SDS011;10147;16.402;102.848;2023-09-18T01:08:04;15.85;;;14.50;;
19971;SDS011;10147;16.402;102.848;2023-09-18T01:10:45;15.38;;;14.05;;
19971;SDS011;10147;16.402;102.848;2023-09-18T01:13:29;15.95;;;14.43;;
19971;SDS011;10147;16.402;102.848;2023-09-18T01:16:17;16.27;;;14.80;;
19971;SDS011;10147;16.402;102.848;2023-09-18T01:18:55;14.40;;;13.13;;
19971;SDS011;10147;16.402;102.848;2023-09-18T01:21:25;15.60;;;14.07;;
19971;SDS011;10147;16.402;102.848;2023-09-18T01:23:55;14.85;;;13.55;;
19971;SDS011;10147;16.402;102.848;2023-09-18T01:26:25;15.63;;;14.10;;
19971;SDS011;10147;16.402;102.848;2023-09-18T01:28:55;15.20;;;13.90;;
19971;SDS011;10147;16.402;102.848;2023-09-18T01:31:25;15.35;;;13.88;;
19971;SDS011;10147;16.402;102.848;2023-09-18T01:33:55;15.75;;;14.18;;
19971;SDS011;10147;16.402;102.848;2023-09-18T01:36:25;14.60;;;13.43;;
19971;SDS011;10147;16.402;102.848;2023-09-18T01:38:56;15.13;;;13.73;;
19971;SDS011;10147;16.402;102.848;2023-09-18T01:41:26;15.60;;;14.10;;
19971;SDS011;10147;16.402;102.848;2023-09-18T01:43:58;14.68;;;13.40;;
19971;SDS011;10147;16.402;102.848;2023-09-18T01:46:28;15.23;;;13.88;;
19971;SDS011;10147;16.402;102.848;2023-09-18T01:49:00;15.48;;;13.95;;
19971;SDS011;10147;16.402;102.848;2023-09-18T01:51:31;14.57;;;13.30;;
19971;SDS011;10147;16.402;102.848;2023-09-18T01:54:01;16.33;;;14.93;;
19971;SDS011;10147;16.402;102.848;2023-09-18T01:56:33;15.63;;;14.30;;
19971;SDS011;10147;16.402;102.848;2023-09-18T01:59:03;16.83;;;15.13;;
19971;SDS011;10147;16.402;102.848;2023-09-18T02:01:34;16.65;;;14.48;;
19971;SDS011;10147;16.402;102.848;2023-09-18T02:04:06;16.30;;;14.90;;
19971;SDS011;10147;16.402;102.848;2023-09-18T02:06:57;15.30;;;14.00;;
19971;SDS011;10147;16.402;102.848;2023-09-18T02:09:29;15.48;;;14.18;;
19971;SDS011;10147;16.402;102.848;2023-09-18T02:12:00;16.35;;;14.93;;
19971;SDS011;10147;16.402;102.848;2023-09-18T02:14:31;15.40;;;14.02;;
19971;SDS011;10147;16.402;102.848;2023-09-18T02:17:03;14.35;;;13.15;;
19971;SDS011;10147;16.402;102.848;2023-09-18T02:19:34;14.55;;;13.35;;
19971;SDS011;10147;16.402;102.848;2023-09-18T02:22:03;14.95;;;13.55;;
19971;SDS011;10147;16.402;102.848;2023-09-18T02:24:34;14.63;;;13.23;;
19971;SDS011;10147;16.402;102.848;2023-09-18T02:27:04;13.20;;;12.02;;
19971;SDS011;10147;16.402;102.848;2023-09-18T02:29:35;21.30;;;19.48;;
19971;SDS011;10147;16.402;102.848;2023-09-18T02:32:05;13.93;;;12.73;;
19971;SDS011;10147;16.402;102.848;2023-09-18T02:34:35;13.65;;;12.52;;
19971;SDS011;10147;16.402;102.848;2023-09-18T02:37:05;12.55;;;11.45;;
19971;SDS011;10147;16.402;102.848;2023-09-18T02:39:35;12.55;;;11.43;;
19971;SDS011;10147;16.402;102.848;2023-09-18T02:42:05;13.95;;;10.80;;
19971;SDS011;10147;16.402;102.848;2023-09-18T02:44:36;13.18;;;12.07;;
19971;SDS011;10147;16.402;102.848;2023-09-18T02:47:06;12.23;;;11.02;;
19971;SDS011;10147;16.402;102.848;2023-09-18T02:49:36;12.00;;;11.00;;
19971;SDS011;10147;16.402;102.848;2023-09-18T02:52:08;12.27;;;11.10;;
19971;SDS011;10147;16.402;102.848;2023-09-18T02:54:37;10.88;;;9.95;;
19971;SDS011;10147;16.402;102.848;2023-09-18T02:57:07;10.48;;;9.40;;
19971;SDS011;10147;16.402;102.848;2023-09-18T02:59:38;10.05;;;9.10;;
19971;SDS011;10147;16.402;102.848;2023-09-18T03:02:08;10.23;;;9.18;;
19971;SDS011;10147;16.402;102.848;2023-09-18T03:04:38;11.23;;;10.23;;
19971;SDS011;10147;16.402;102.848;2023-09-18T03:07:08;10.20;;;9.00;;
19971;SDS011;10147;16.402;102.848;2023-09-18T03:09:38;10.63;;;8.57;;
19971;SDS011;10147;16.402;102.848;2023-09-18T03:12:08;10.10;;;9.02;;
19971;SDS011;10147;16.402;102.848;2023-09-18T03:14:39;11.07;;;9.98;;
19971;SDS011;10147;16.402;102.848;2023-09-18T03:17:10;9.20;;;8.40;;
19971;SDS011;10147;16.402;102.848;2023-09-18T03:19:40;18.25;;;16.38;;
19971;SDS011;10147;16.402;102.848;2023-09-18T03:22:10;9.98;;;8.93;;
19971;SDS011;10147;16.402;102.848;2023-09-18T03:24:41;11.07;;;8.35;;
19971;SDS011;10147;16.402;102.848;2023-09-18T03:27:15;10.02;;;9.02;;
19971;SDS011;10147;16.402;102.848;2023-09-18T03:29:45;11.55;;;10.32;;
19971;SDS011;10147;16.402;102.848;2023-09-18T03:32:16;9.90;;;9.00;;
19971;SDS011;10147;16.402;102.848;2023-09-18T03:34:46;22.02;;;20.38;;
19971;SDS011;10147;16.402;102.848;2023-09-18T03:37:21;9.20;;;8.40;;
19971;SDS011;10147;16.402;102.848;2023-09-18T03:39:53;9.90;;;8.85;;
19971;SDS011;10147;16.402;102.848;2023-09-18T03:42:24;10.65;;;9.55;;
19971;SDS011;10147;16.402;102.848;2023-09-18T03:44:57;10.40;;;9.52;;
19971;SDS011;10147;16.402;102.848;2023-09-18T03:47:28;22.30;;;18.63;;
19971;SDS011;10147;16.402;102.848;2023-09-18T03:49:59;10.50;;;9.65;;
19971;SDS011;10147;16.402;102.848;2023-09-18T03:52:30;10.98;;;9.98;;
19971;SDS011;10147;16.402;102.848;2023-09-18T03:55:00;9.18;;;8.52;;
19971;SDS011;10147;16.402;102.848;2023-09-18T03:57:30;11.13;;;10.10;;
19971;SDS011;10147;16.402;102.848;2023-09-18T04:00:00;10.32;;;9.35;;
19971;SDS011;10147;16.402;102.848;2023-09-18T04:02:37;17.90;;;15.70;;
19971;SDS011;10147;16.402;102.848;2023-09-18T04:05:07;13.50;;;12.18;;
19971;SDS011;10147;16.402;102.848;2023-09-18T04:07:38;12.48;;;11.38;;
19971;SDS011;10147;16.402;102.848;2023-09-18T04:10:08;9.75;;;8.88;;
19971;SDS011;10147;16.402;102.848;2023-09-18T04:12:43;10.82;;;9.80;;
19971;SDS011;10147;16.402;102.848;2023-09-18T04:15:15;8.73;;;7.90;;
19971;SDS011;10147;16.402;102.848;2023-09-18T04:17:47;9.05;;;8.25;;
19971;SDS011;10147;16.402;102.848;2023-09-18T04:20:18;8.07;;;7.28;;
19971;SDS011;10147;16.402;102.848;2023-09-18T04:23:16;8.75;;;7.63;;
19971;SDS011;10147;16.402;102.848;2023-09-18T04:26:01;8.95;;;8.00;;
19971;SDS011;10147;16.402;102.848;2023-09-18T04:28:31;11.45;;;10.25;;
19971;SDS011;10147;16.402;102.848;2023-09-18T04:31:02;9.15;;;8.20;;
19971;SDS011;10147;16.402;102.848;2023-09-18T04:33:32;10.18;;;9.25;;
19971;SDS011;10147;16.402;102.848;2023-09-18T04:36:03;8.82;;;8.00;;
19971;SDS011;10147;16.402;102.848;2023-09-18T04:38:37;8.70;;;7.90;;
19971;SDS011;10147;16.402;102.848;2023-09-18T04:41:08;10.63;;;9.63;;
19971;SDS011;10147;16.402;102.848;2023-09-18T04:43:40;9.50;;;8.70;;
19971;SDS011;10147;16.402;102.848;2023-09-18T04:46:12;10.23;;;9.25;;
19971;SDS011;10147;16.402;102.848;2023-09-18T04:48:44;9.88;;;9.07;;
19971;SDS011;10147;16.402;102.848;2023-09-18T04:51:14;9.88;;;8.88;;
19971;SDS011;10147;16.402;102.848;2023-09-18T04:53:46;12.32;;;11.18;;
19971;SDS011;10147;16.402;102.848;2023-09-18T04:56:16;14.43;;;13.23;;
19971;SDS011;10147;16.402;102.848;2023-09-18T04:58:47;16.40;;;14.82;;
19971;SDS011;10147;16.402;102.848;2023-09-18T05:01:18;16.75;;;15.25;;
19971;SDS011;10147;16.402;102.848;2023-09-18T05:03:48;18.75;;;16.95;;
19971;SDS011;10147;16.402;102.848;2023-09-18T05:06:20;19.60;;;17.80;;
19971;SDS011;10147;16.402;102.848;2023-09-18T05:08:51;19.25;;;17.35;;
19971;SDS011;10147;16.402;102.848;2023-09-18T05:11:25;21.67;;;17.83;;
19971;SDS011;10147;16.402;102.848;2023-09-18T05:13:55;21.65;;;17.65;;
19971;SDS011;10147;16.402;102.848;2023-09-18T05:16:25;19.08;;;17.08;;
19971;SDS011;10147;16.402;102.848;2023-09-18T05:18:56;21.05;;;19.10;;
19971;SDS011;10147;16.402;102.848;2023-09-18T05:21:26;17.55;;;15.77;;
19971;SDS011;10147;16.402;102.848;2023-09-18T05:23:56;17.25;;;15.88;;
19971;SDS011;10147;16.402;102.848;2023-09-18T05:26:27;24.23;;;22.63;;
19971;SDS011;10147;16.402;102.848;2023-09-18T05:28:59;16.55;;;15.05;;
19971;SDS011;10147;16.402;102.848;2023-09-18T05:31:30;16.30;;;14.98;;
19971;SDS011;10147;16.402;102.848;2023-09-18T05:34:00;16.70;;;15.40;;
19971;SDS011;10147;16.402;102.848;2023-09-18T05:36:31;16.75;;;15.55;;
19971;SDS011;10147;16.402;102.848;2023-09-18T05:39:01;16.88;;;15.35;;
19971;SDS011;10147;16.402;102.848;2023-09-18T05:41:32;16.48;;;15.27;;
19971;SDS011;10147;16.402;102.848;2023-09-18T05:44:02;17.20;;;15.75;;
19971;SDS011;10147;16.402;102.848;2023-09-18T05:46:37;16.95;;;15.48;;
19971;SDS011;10147;16.402;102.848;2023-09-18T05:49:07;16.65;;;15.35;;
19971;SDS011;10147;16.402;102.848;2023-09-18T05:51:39;16.00;;;14.52;;
19971;SDS011;10147;16.402;102.848;2023-09-18T05:54:09;15.65;;;14.35;;
19971;SDS011;10147;16.402;102.848;2023-09-18T05:56:39;16.80;;;15.50;;
19971;SDS011;10147;16.402;102.848;2023-09-18T05:59:10;16.05;;;14.73;;
19971;SDS011;10147;16.402;102.848;2023-09-18T06:01:40;16.75;;;15.25;;
19971;SDS011;10147;16.402;102.848;2023-09-18T06:04:10;16.65;;;15.40;;
19971;SDS011;10147;16.402;102.848;2023-09-18T06:06:42;16.33;;;14.90;;
19971;SDS011;10147;16.402;102.848;2023-09-18T06:09:12;17.40;;;14.95;;
19971;SDS011;10147;16.402;102.848;2023-09-18T06:11:42;16.83;;;15.27;;
19971;SDS011;10147;16.402;102.848;2023-09-18T06:14:13;15.90;;;14.63;;
19971;SDS011;10147;16.402;102.848;2023-09-18T06:16:43;17.45;;;15.95;;
19971;SDS011;10147;16.402;102.848;2023-09-18T06:19:14;16.45;;;15.15;;
19971;SDS011;10147;16.402;102.848;2023-09-18T06:21:47;40.08;;;36.95;;
19971;SDS011;10147;16.402;102.848;2023-09-18T06:24:17;17.15;;;15.75;;
19971;SDS011;10147;16.402;102.848;2023-09-18T06:26:47;16.80;;;15.40;;
19971;SDS011;10147;16.402;102.848;2023-09-18T06:29:17;20.10;;;18.48;;
19971;SDS011;10147;16.402;102.848;2023-09-18T06:31:49;21.88;;;19.65;;
19971;SDS011;10147;16.402;102.848;2023-09-18T06:34:20;16.55;;;15.25;;
19971;SDS011;10147;16.402;102.848;2023-09-18T06:36:50;16.08;;;14.70;;
19971;SDS011;10147;16.402;102.848;2023-09-18T06:39:20;15.32;;;14.02;;
19971;SDS011;10147;16.402;102.848;2023-09-18T06:41:52;15.73;;;14.43;;
19971;SDS011;10147;16.402;102.848;2023-09-18T06:44:25;16.52;;;15.23;;
19971;SDS011;10147;16.402;102.848;2023-09-18T06:46:57;15.13;;;13.93;;
19971;SDS011;10147;16.402;102.848;2023-09-18T06:49:28;15.80;;;14.60;;
19971;SDS011;10147;16.402;102.848;2023-09-18T06:51:59;15.07;;;13.98;;
19971;SDS011;10147;16.402;102.848;2023-09-18T06:54:33;16.08;;;14.88;;
19971;SDS011;10147;16.402;102.848;2023-09-18T06:57:04;16.98;;;15.68;;
19971;SDS011;10147;16.402;102.848;2023-09-18T06:59:37;14.90;;;13.80;;
19971;SDS011;10147;16.402;102.848;2023-09-18T07:02:08;16.23;;;14.68;;
19971;SDS011;10147;16.402;102.848;2023-09-18T07:04:38;15.70;;;14.50;;
19971;SDS011;10147;16.402;102.848;2023-09-18T07:07:14;15.65;;;14.43;;
19971;SDS011;10147;16.402;102.848;2023-09-18T07:09:46;16.63;;;15.43;;
19971;SDS011;10147;16.402;102.848;2023-09-18T07:12:31;16.05;;;14.75;;
19971;SDS011;10147;16.402;102.848;2023-09-18T07:15:03;17.77;;;16.17;;
19971;SDS011;10147;16.402;102.848;2023-09-18T07:17:35;23.02;;;21.02;;
19971;SDS011;10147;16.402;102.848;2023-09-18T07:20:06;26.08;;;23.70;;
19971;SDS011;10147;16.402;102.848;2023-09-18T07:22:46;31.05;;;27.92;;
19971;SDS011;10147;16.402;102.848;2023-09-18T07:25:17;14.50;;;13.40;;
19971;SDS011;10147;16.402;102.848;2023-09-18T07:27:47;15.05;;;13.85;;
19971;SDS011;10147;16.402;102.848;2023-09-18T07:30:19;14.27;;;13.18;;
19971;SDS011;10147;16.402;102.848;2023-09-18T07:32:55;14.45;;;13.45;;
19971;SDS011;10147;16.402;102.848;2023-09-18T07:35:26;14.50;;;13.45;;
19971;SDS011;10147;16.402;102.848;2023-09-18T07:37:57;15.55;;;14.27;;
19971;SDS011;10147;16.402;102.848;2023-09-18T07:40:27;16.75;;;15.35;;
19971;SDS011;10147;16.402;102.848;2023-09-18T07:42:57;15.93;;;14.65;;
19971;SDS011;10147;16.402;102.848;2023-09-18T07:45:28;14.60;;;13.40;;
19971;SDS011;10147;16.402;102.848;2023-09-18T07:47:58;14.75;;;13.70;;
19971;SDS011;10147;16.402;102.848;2023-09-18T07:50:29;16.08;;;14.80;;
19971;SDS011;10147;16.402;102.848;2023-09-18T07:53:01;15.93;;;14.73;;
19971;SDS011;10147;16.402;102.848;2023-09-18T07:55:32;16.77;;;15.57;;
19971;SDS011;10147;16.402;102.848;2023-09-18T07:58:01;17.23;;;15.75;;
19971;SDS011;10147;16.402;102.848;2023-09-18T08:00:33;16.27;;;14.98;;
19971;SDS011;10147;16.402;102.848;2023-09-18T08:03:03;17.50;;;16.08;;
19971;SDS011;10147;16.402;102.848;2023-09-18T08:05:33;17.08;;;15.70;;
19971;SDS011;10147;16.402;102.848;2023-09-18T08:08:03;17.88;;;16.30;;
19971;SDS011;10147;16.402;102.848;2023-09-18T08:10:36;15.82;;;14.63;;
19971;SDS011;10147;16.402;102.848;2023-09-18T08:13:06;15.55;;;14.32;;
19971;SDS011;10147;16.402;102.848;2023-09-18T08:15:36;16.27;;;14.98;;
19971;SDS011;10147;16.402;102.848;2023-09-18T08:18:06;15.70;;;14.50;;
19971;SDS011;10147;16.402;102.848;2023-09-18T08:20:40;14.50;;;13.40;;
19971;SDS011;10147;16.402;102.848;2023-09-18T08:23:11;14.15;;;13.15;;
19971;SDS011;10147;16.402;102.848;2023-09-18T08:25:41;14.65;;;13.65;;
19971;SDS011;10147;16.402;102.848;2023-09-18T08:28:11;14.52;;;13.38;;
19971;SDS011;10147;16.402;102.848;2023-09-18T08:30:43;16.98;;;15.70;;
19971;SDS011;10147;16.402;102.848;2023-09-18T08:33:16;15.93;;;14.60;;
19971;SDS011;10147;16.402;102.848;2023-09-18T08:35:46;15.82;;;14.27;;
19971;SDS011;10147;16.402;102.848;2023-09-18T08:38:18;15.32;;;14.13;;
19971;SDS011;10147;16.402;102.848;2023-09-18T08:40:48;14.48;;;13.48;;
19971;SDS011;10147;16.402;102.848;2023-09-18T08:43:20;14.05;;;12.90;;
19971;SDS011;10147;16.402;102.848;2023-09-18T08:45:53;16.15;;;14.85;;
19971;SDS011;10147;16.402;102.848;2023-09-18T08:48:25;14.05;;;13.02;;
19971;SDS011;10147;16.402;102.848;2023-09-18T08:51:04;15.02;;;13.88;;
19971;SDS011;10147;16.402;102.848;2023-09-18T08:53:35;16.65;;;15.23;;
19971;SDS011;10147;16.402;102.848;2023-09-18T08:56:06;15.38;;;13.93;;
19971;SDS011;10147;16.402;102.848;2023-09-18T08:58:37;15.90;;;14.70;;
19971;SDS011;10147;16.402;102.848;2023-09-18T09:01:11;16.02;;;14.60;;
19971;SDS011;10147;16.402;102.848;2023-09-18T09:03:42;15.18;;;13.88;;
19971;SDS011;10147;16.402;102.848;2023-09-18T09:06:14;15.88;;;14.38;;
19971;SDS011;10147;16.402;102.848;2023-09-18T09:08:44;16.92;;;15.55;;
19971;SDS011;10147;16.402;102.848;2023-09-18T09:11:14;15.68;;;14.38;;
19971;SDS011;10147;16.402;102.848;2023-09-18T09:13:45;15.40;;;14.05;;
19971;SDS011;10147;16.402;102.848;2023-09-18T09:16:15;15.18;;;13.90;;
19971;SDS011;10147;16.402;102.848;2023-09-18T09:18:49;16.63;;;15.23;;
19971;SDS011;10147;16.402;102.848;2023-09-18T09:21:20;16.50;;;15.20;;
19971;SDS011;10147;16.402;102.848;2023-09-18T09:23:50;22.55;;;20.35;;
19971;SDS011;10147;16.402;102.848;2023-09-18T09:26:22;15.70;;;14.40;;
19971;SDS011;10147;16.402;102.848;2023-09-18T09:28:53;19.38;;;17.75;;
19971;SDS011;10147;16.402;102.848;2023-09-18T09:31:27;17.38;;;16.10;;
19971;SDS011;10147;16.402;102.848;2023-09-18T09:33:59;15.23;;;13.82;;
19971;SDS011;10147;16.402;102.848;2023-09-18T09:36:33;15.13;;;13.93;;
19971;SDS011;10147;16.402;102.848;2023-09-18T09:39:03;18.60;;;17.02;;
19971;SDS011;10147;16.402;102.848;2023-09-18T09:41:33;20.77;;;18.88;;
19971;SDS011;10147;16.402;102.848;2023-09-18T09:44:04;14.27;;;13.13;;
19971;SDS011;10147;16.402;102.848;2023-09-18T09:46:34;21.00;;;19.25;;
19971;SDS011;10147;16.402;102.848;2023-09-18T09:49:05;13.65;;;12.52;;
19971;SDS011;10147;16.402;102.848;2023-09-18T09:51:35;14.23;;;13.02;;
19971;SDS011;10147;16.402;102.848;2023-09-18T09:54:05;14.85;;;13.75;;
19971;SDS011;10147;16.402;102.848;2023-09-18T09:56:43;16.13;;;14.82;;
19971;SDS011;10147;16.402;102.848;2023-09-18T09:59:19;15.07;;;13.90;;
19971;SDS011;10147;16.402;102.848;2023-09-18T10:01:49;15.55;;;14.15;;
19971;SDS011;10147;16.402;102.848;2023-09-18T10:04:19;31.58;;;28.45;;
19971;SDS011;10147;16.402;102.848;2023-09-18T10:06:52;15.45;;;14.05;;
19971;SDS011;10147;16.402;102.848;2023-09-18T10:09:26;14.48;;;13.35;;
19971;SDS011;10147;16.402;102.848;2023-09-18T10:11:58;14.23;;;13.02;;
19971;SDS011;10147;16.402;102.848;2023-09-18T10:14:30;14.45;;;13.20;;
19971;SDS011;10147;16.402;102.848;2023-09-18T10:17:24;14.50;;;13.35;;
19971;SDS011;10147;16.402;102.848;2023-09-18T10:20:06;15.27;;;14.00;;
19971;SDS011;10147;16.402;102.848;2023-09-18T10:22:40;16.02;;;14.65;;
19971;SDS011;10147;16.402;102.848;2023-09-18T10:25:23;15.38;;;14.13;;
19971;SDS011;10147;16.402;102.848;2023-09-18T10:27:57;14.95;;;13.45;;
19971;SDS011;10147;16.402;102.848;2023-09-18T10:30:30;14.32;;;13.15;;
19971;SDS011;10147;16.402;102.848;2023-09-18T10:33:03;15.50;;;14.20;;
19971;SDS011;10147;16.402;102.848;2023-09-18T10:35:36;16.38;;;14.98;;
19971;SDS011;10147;16.402;102.848;2023-09-18T10:38:07;15.80;;;14.45;;
19971;SDS011;10147;16.402;102.848;2023-09-18T10:40:39;16.63;;;15.18;;
19971;SDS011;10147;16.402;102.848;2023-09-18T10:43:10;17.90;;;16.27;;
19971;SDS011;10147;16.402;102.848;2023-09-18T10:45:42;17.27;;;15.77;;
19971;SDS011;10147;16.402;102.848;2023-09-18T10:48:13;16.02;;;14.60;;
19971;SDS011;10147;16.402;102.848;2023-09-18T10:50:44;18.00;;;16.38;;
19971;SDS011;10147;16.402;102.848;2023-09-18T10:53:14;16.92;;;14.75;;
19971;SDS011;10147;16.402;102.848;2023-09-18T10:55:45;16.13;;;14.80;;
19971;SDS011;10147;16.402;102.848;2023-09-18T10:58:22;16.13;;;14.75;;
19971;SDS011;10147;16.402;102.848;2023-09-18T11:00:54;15.55;;;14.18;;
19971;SDS011;10147;16.402;102.848;2023-09-18T11:03:26;15.93;;;14.00;;
19971;SDS011;10147;16.402;102.848;2023-09-18T11:06:04;18.92;;;16.88;;
19971;SDS011;10147;16.402;102.848;2023-09-18T11:08:43;18.40;;;16.90;;
19971;SDS011;10147;16.402;102.848;2023-09-18T11:11:16;42.33;;;39.05;;
19971;SDS011;10147;16.402;102.848;2023-09-18T11:13:52;18.02;;;16.33;;
19971;SDS011;10147;16.402;102.848;2023-09-18T11:19:11;16.95;;;15.55;;
19971;SDS011;10147;16.402;102.848;2023-09-18T11:21:47;17.92;;;16.27;;
19971;SDS011;10147;16.402;102.848;2023-09-18T11:24:35;18.20;;;16.50;;
19971;SDS011;10147;16.402;102.848;2023-09-18T11:27:05;17.88;;;16.17;;
19971;SDS011;10147;16.402;102.848;2023-09-18T11:29:35;18.33;;;16.60;;
19971;SDS011;10147;16.402;102.848;2023-09-18T11:32:06;18.45;;;16.65;;
19971;SDS011;10147;16.402;102.848;2023-09-18T11:34:38;19.45;;;16.65;;
19971;SDS011;10147;16.402;102.848;2023-09-18T11:37:22;18.08;;;16.48;;
19971;SDS011;10147;16.402;102.848;2023-09-18T11:39:54;17.30;;;15.57;;
19971;SDS011;10147;16.402;102.848;2023-09-18T11:42:25;19.35;;;17.52;;
19971;SDS011;10147;16.402;102.848;2023-09-18T11:44:59;19.48;;;17.58;;
19971;SDS011;10147;16.402;102.848;2023-09-18T11:47:29;20.58;;;18.45;;
19971;SDS011;10147;16.402;102.848;2023-09-18T11:50:01;21.05;;;18.85;;
19971;SDS011;10147;16.402;102.848;2023-09-18T11:52:34;22.35;;;20.30;;
19971;SDS011;10147;16.402;102.848;2023-09-18T11:55:05;21.45;;;19.23;;
19971;SDS011;10147;16.402;102.848;2023-09-18T11:57:36;22.58;;;19.65;;
19971;SDS011;10147;16.402;102.848;2023-09-18T12:00:17;21.10;;;18.98;;
19971;SDS011;10147;16.402;102.848;2023-09-18T12:02:51;21.33;;;19.17;;
19971;SDS011;10147;16.402;102.848;2023-09-18T12:05:21;23.05;;;20.85;;
19971;SDS011;10147;16.402;102.848;2023-09-18T12:07:54;21.95;;;18.77;;
19971;SDS011;10147;16.402;102.848;2023-09-18T12:10:24;24.05;;;21.95;;
19971;SDS011;10147;16.402;102.848;2023-09-18T12:13:00;21.95;;;18.25;;
19971;SDS011;10147;16.402;102.848;2023-09-18T12:15:35;21.05;;;18.98;;
19971;SDS011;10147;16.402;102.848;2023-09-18T12:18:09;20.67;;;18.65;;
19971;SDS011;10147;16.402;102.848;2023-09-18T12:20:47;20.92;;;19.00;;
19971;SDS011;10147;16.402;102.848;2023-09-18T12:23:18;21.75;;;19.65;;
19971;SDS011;10147;16.402;102.848;2023-09-18T12:25:49;22.40;;;19.58;;
19971;SDS011;10147;16.402;102.848;2023-09-18T12:28:26;21.80;;;19.38;;
19971;SDS011;10147;16.402;102.848;2023-09-18T12:30:58;20.30;;;18.30;;
19971;SDS011;10147;16.402;102.848;2023-09-18T12:33:37;52.70;;;47.45;;
19971;SDS011;10147;16.402;102.848;2023-09-18T12:36:08;45.08;;;40.22;;
19971;SDS011;10147;16.402;102.848;2023-09-18T12:38:39;24.67;;;20.70;;
19971;SDS011;10147;16.402;102.848;2023-09-18T12:41:10;40.40;;;36.03;;
19971;SDS011;10147;16.402;102.848;2023-09-18T12:43:41;23.52;;;21.08;;
19971;SDS011;10147;16.402;102.848;2023-09-18T12:46:12;19.70;;;17.83;;
19971;SDS011;10147;16.402;102.848;2023-09-18T12:48:42;40.53;;;36.40;;
19971;SDS011;10147;16.402;102.848;2023-09-18T12:51:16;25.70;;;22.02;;
19971;SDS011;10147;16.402;102.848;2023-09-18T12:54:02;20.88;;;18.88;;
19971;SDS011;10147;16.402;102.848;2023-09-18T12:56:39;24.40;;;21.92;;
19971;SDS011;10147;16.402;102.848;2023-09-18T12:59:11;175.57;;;157.15;;
19971;SDS011;10147;16.402;102.848;2023-09-18T13:01:45;255.20;;;228.70;;
19971;SDS011;10147;16.402;102.848;2023-09-18T13:04:17;92.53;;;83.00;;
19971;SDS011;10147;16.402;102.848;2023-09-18T13:09:41;40.53;;;36.15;;
19971;SDS011;10147;16.402;102.848;2023-09-18T13:12:11;40.95;;;34.50;;
19971;SDS011;10147;16.402;102.848;2023-09-18T13:17:44;20.67;;;18.60;;
19971;SDS011;10147;16.402;102.848;2023-09-18T13:20:16;40.40;;;36.40;;
19971;SDS011;10147;16.402;102.848;2023-09-18T13:22:50;33.63;;;30.42;;
19971;SDS011;10147;16.402;102.848;2023-09-18T13:25:22;23.25;;;20.85;;
19971;SDS011;10147;16.402;102.848;2023-09-18T13:27:54;31.27;;;28.02;;
19971;SDS011;10147;16.402;102.848;2023-09-18T13:30:25;29.30;;;26.42;;
19971;SDS011;10147;16.402;102.848;2023-09-18T13:33:02;28.73;;;25.92;;
19971;SDS011;10147;16.402;102.848;2023-09-18T13:35:36;24.80;;;22.50;;
19971;SDS011;10147;16.402;102.848;2023-09-18T13:38:09;21.55;;;19.40;;
19971;SDS011;10147;16.402;102.848;2023-09-18T13:40:40;27.05;;;24.55;;
19971;SDS011;10147;16.402;102.848;2023-09-18T13:43:11;28.90;;;25.92;;
19971;SDS011;10147;16.402;102.848;2023-09-18T13:45:44;58.60;;;53.15;;
19971;SDS011;10147;16.402;102.848;2023-09-18T13:48:14;50.47;;;46.08;;
19971;SDS011;10147;16.402;102.848;2023-09-18T13:50:45;29.25;;;26.35;;
19971;SDS011;10147;16.402;102.848;2023-09-18T13:53:16;23.13;;;20.85;;
19971;SDS011;10147;16.402;102.848;2023-09-18T13:55:46;22.27;;;20.20;;
19971;SDS011;10147;16.402;102.848;2023-09-18T13:58:16;27.30;;;24.67;;
19971;SDS011;10147;16.402;102.848;2023-09-18T14:00:47;26.00;;;23.73;;
19971;SDS011;10147;16.402;102.848;2023-09-18T14:03:18;25.08;;;22.70;;
19971;SDS011;10147;16.402;102.848;2023-09-18T14:05:49;24.98;;;22.52;;
19971;SDS011;10147;16.402;102.848;2023-09-18T14:08:20;21.30;;;19.27;;
19971;SDS011;10147;16.402;102.848;2023-09-18T14:10:49;25.15;;;22.85;;
19971;SDS011;10147;16.402;102.848;2023-09-18T14:13:19;23.25;;;21.08;;
19971;SDS011;10147;16.402;102.848;2023-09-18T14:15:49;22.20;;;20.30;;
19971;SDS011;10147;16.402;102.848;2023-09-18T14:18:19;24.38;;;21.85;;
19971;SDS011;10147;16.402;102.848;2023-09-18T14:20:49;24.67;;;22.08;;
19971;SDS011;10147;16.402;102.848;2023-09-18T14:23:19;21.33;;;19.42;;
19971;SDS011;10147;16.402;102.848;2023-09-18T14:25:49;22.33;;;20.23;;
19971;SDS011;10147;16.402;102.848;2023-09-18T14:28:20;23.48;;;21.23;;
19971;SDS011;10147;16.402;102.848;2023-09-18T14:30:50;24.88;;;22.73;;
19971;SDS011;10147;16.402;102.848;2023-09-18T14:33:20;20.52;;;18.73;;